createdAt,value
2023-05-24T00:01:58.892Z,66.45
2023-05-24T00:04:00.867Z,67.02
2023-05-24T00:06:02.694Z,66.90
2023-05-24T00:08:04.022Z,67.48
2023-05-24T00:10:05.675Z,67.27
2023-05-24T00:12:07.006Z,67.36
2023-05-24T00:14:08.387Z,67.55
2023-05-24T00:16:09.748Z,66.98
2023-05-24T00:18:11.094Z,67.75
2023-05-24T00:20:12.632Z,67.62
2023-05-24T00:22:14.129Z,67.89
2023-05-24T00:24:17.075Z,67.67
2023-05-24T00:26:18.472Z,67.68
2023-05-24T00:28:19.836Z,67.47
2023-05-24T00:30:21.213Z,68.25
2023-05-24T00:32:22.553Z,68.32
2023-05-24T00:34:23.904Z,67.93
2023-05-24T00:36:25.408Z,68.43
2023-05-24T00:38:26.964Z,68.00
2023-05-24T00:40:28.313Z,68.10
2023-05-24T00:42:29.695Z,68.35
2023-05-24T00:44:31.193Z,68.16
2023-05-24T00:46:32.602Z,68.38
2023-05-24T00:48:34.018Z,68.30
2023-05-24T00:50:35.544Z,68.28
2023-05-24T00:52:36.878Z,67.93
2023-05-24T00:54:40.668Z,68.18
2023-05-24T00:56:42.170Z,68.24
2023-05-24T00:58:43.578Z,68.28
2023-05-24T01:00:44.925Z,68.43
2023-05-24T01:02:48.367Z,68.61
2023-05-24T01:04:49.855Z,68.67
2023-05-24T01:06:51.191Z,68.41
2023-05-24T01:08:52.513Z,68.35
2023-05-24T01:10:53.919Z,68.34
2023-05-24T01:12:55.400Z,68.40
2023-05-24T01:14:56.716Z,68.37
2023-05-24T01:16:58.075Z,68.68
2023-05-24T01:18:59.456Z,69.07
2023-05-24T01:21:02.589Z,68.62
2023-05-24T01:23:03.986Z,68.63
2023-05-24T01:25:05.386Z,68.57
2023-05-24T01:27:07.372Z,68.64
2023-05-24T01:29:08.781Z,68.87
2023-05-24T01:31:10.160Z,68.64
2023-05-24T01:33:11.530Z,68.62
2023-05-24T01:35:12.857Z,68.74
2023-05-24T01:37:14.226Z,68.71
2023-05-24T01:39:15.749Z,68.51
2023-05-24T01:41:17.067Z,68.71
2023-05-24T01:43:18.507Z,68.71
2023-05-24T01:45:19.968Z,68.71
2023-05-24T01:47:21.454Z,68.78
2023-05-24T01:49:22.844Z,68.92
2023-05-24T01:51:24.185Z,68.80
2023-05-24T01:53:26.372Z,68.77
2023-05-24T01:55:27.920Z,68.82
2023-05-24T01:57:29.293Z,68.94
2023-05-24T01:59:30.902Z,68.91
2023-05-24T02:01:32.340Z,69.24
2023-05-24T02:03:33.747Z,69.12
2023-05-24T02:05:35.181Z,69.15
2023-05-24T02:07:36.564Z,68.82
2023-05-24T02:09:37.924Z,68.78
2023-05-24T02:11:39.265Z,69.03
2023-05-24T02:13:40.633Z,68.99
2023-05-24T02:15:42.028Z,69.15
2023-05-24T02:17:43.533Z,69.06
2023-05-24T02:19:44.927Z,69.02
2023-05-24T02:21:46.269Z,69.23
2023-05-24T02:23:47.832Z,69.01
2023-05-24T02:25:49.279Z,69.04
2023-05-24T02:27:50.832Z,69.14
2023-05-24T02:29:52.915Z,69.15
2023-05-24T02:31:56.751Z,69.16
2023-05-24T02:33:58.120Z,69.21
2023-05-24T02:35:59.523Z,69.30
2023-05-24T02:38:02.182Z,69.66
2023-05-24T02:40:04.135Z,69.47
2023-05-24T02:42:06.012Z,69.05
2023-05-24T02:44:07.455Z,69.36
2023-05-24T02:46:08.795Z,69.31
2023-05-24T02:48:10.196Z,69.38
2023-05-24T02:50:11.521Z,69.18
2023-05-24T02:52:13.784Z,69.05
2023-05-24T02:54:17.727Z,69.19
2023-05-24T02:56:19.213Z,69.28
2023-05-24T02:58:20.576Z,69.38
2023-05-24T03:00:21.954Z,69.40
2023-05-24T03:02:23.372Z,69.50
2023-05-24T03:04:24.788Z,69.38
2023-05-24T03:06:26.158Z,69.38
2023-05-24T03:08:27.480Z,69.62
2023-05-24T03:10:28.812Z,69.34
2023-05-24T03:12:30.493Z,69.80
2023-05-24T03:14:31.811Z,69.75
2023-05-24T03:16:33.207Z,69.48
2023-05-24T03:18:34.588Z,69.39
2023-05-24T03:20:36.203Z,69.46
2023-05-24T03:22:37.610Z,69.44
2023-05-24T03:24:38.975Z,69.48
2023-05-24T03:26:40.299Z,69.60
2023-05-24T03:28:42.005Z,69.62
2023-05-24T03:30:43.736Z,69.38
2023-05-24T03:32:45.464Z,69.81
2023-05-24T03:34:46.910Z,69.75
2023-05-24T03:36:48.264Z,69.63
2023-05-24T03:38:49.692Z,69.72
2023-05-24T03:40:51.064Z,69.75
2023-05-24T03:42:52.380Z,70.18
2023-05-24T03:44:53.780Z,70.08
2023-05-24T03:46:55.119Z,70.16
2023-05-24T03:48:56.486Z,70.21
2023-05-24T03:50:57.821Z,70.21
2023-05-24T03:52:59.167Z,70.01
2023-05-24T03:55:00.722Z,70.12
2023-05-24T03:57:02.676Z,69.98
2023-05-24T03:59:04.222Z,70.13
2023-05-24T04:01:05.577Z,70.06
2023-05-24T04:03:07.022Z,69.94
2023-05-24T04:05:12.230Z,69.92
2023-05-24T04:07:13.877Z,70.01
2023-05-24T04:09:15.653Z,70.09
2023-05-24T04:11:17.354Z,69.78
2023-05-24T04:13:18.753Z,70.21
2023-05-24T04:15:20.127Z,69.81
2023-05-24T04:17:24.732Z,69.92
2023-05-24T04:19:26.318Z,69.85
2023-05-24T04:21:30.347Z,69.85
2023-05-24T04:23:31.729Z,70.08
2023-05-24T04:25:33.684Z,69.80
2023-05-24T04:27:36.315Z,70.08
2023-05-24T04:29:37.815Z,69.48
2023-05-24T04:31:39.986Z,69.82
2023-05-24T04:33:41.644Z,69.94
2023-05-24T04:35:44.349Z,69.78
2023-05-24T04:37:46.719Z,70.03
2023-05-24T04:39:48.198Z,69.90
2023-05-24T04:41:51.794Z,70.03
2023-05-24T04:43:53.327Z,70.11
2023-05-24T04:45:57.485Z,70.03
2023-05-24T04:47:58.897Z,70.06
2023-05-24T04:50:00.345Z,70.19
2023-05-24T04:52:01.738Z,69.97
2023-05-24T04:54:08.669Z,70.05
2023-05-24T04:56:10.158Z,70.09
2023-05-24T04:58:11.548Z,69.89
2023-05-24T05:00:12.921Z,69.94
2023-05-24T05:02:14.272Z,69.82
2023-05-24T05:04:15.879Z,70.16
2023-05-24T05:06:17.291Z,69.98
2023-05-24T05:08:18.623Z,70.00
2023-05-24T05:10:21.183Z,70.00
2023-05-24T05:12:24.687Z,70.08
2023-05-24T05:14:26.007Z,70.28
2023-05-24T05:16:27.424Z,69.74
2023-05-24T05:18:28.791Z,69.99
2023-05-24T05:20:30.182Z,70.06
2023-05-24T05:22:31.569Z,69.87
2023-05-24T05:24:32.951Z,69.98
2023-05-24T05:26:35.617Z,69.83
2023-05-24T05:28:37.004Z,69.95
2023-05-24T05:30:38.414Z,69.80
2023-05-24T05:32:40.207Z,70.11
2023-05-24T05:34:41.731Z,70.37
2023-05-24T05:36:43.352Z,69.77
2023-05-24T05:38:44.784Z,69.85
2023-05-24T05:40:46.236Z,69.81
2023-05-24T05:42:47.697Z,69.93
2023-05-24T05:44:49.124Z,69.72
2023-05-24T05:46:50.453Z,69.59
2023-05-24T05:48:51.829Z,69.68
2023-05-24T05:50:53.157Z,69.25
2023-05-24T05:52:54.527Z,69.62
2023-05-24T05:54:55.857Z,69.48
2023-05-24T05:56:58.217Z,69.48
2023-05-24T05:59:00.887Z,69.52
2023-05-24T06:01:02.404Z,69.71
2023-05-24T06:03:03.819Z,69.85
2023-05-24T06:05:05.548Z,69.74
2023-05-24T06:07:06.882Z,69.72
2023-05-24T06:09:08.499Z,69.93
2023-05-24T06:11:09.829Z,69.96
2023-05-24T06:13:11.335Z,69.97
2023-05-24T06:15:13.608Z,69.77
2023-05-24T06:17:14.938Z,70.06
2023-05-24T06:19:16.869Z,69.68
2023-05-24T06:21:18.462Z,69.83
2023-05-24T06:23:19.840Z,69.78
2023-05-24T06:25:22.838Z,69.47
2023-05-24T06:27:24.242Z,69.35
2023-05-24T06:29:25.561Z,69.41
2023-05-24T06:31:27.010Z,69.41
2023-05-24T06:33:28.400Z,69.25
2023-05-24T06:35:29.775Z,69.29
2023-05-24T06:37:31.540Z,68.95
2023-05-24T06:39:32.883Z,69.27
2023-05-24T06:41:34.289Z,68.98
2023-05-24T06:43:35.700Z,68.89
2023-05-24T06:45:37.417Z,68.89
2023-05-24T06:47:38.889Z,68.95
2023-05-24T06:49:40.316Z,68.90
2023-05-24T06:51:41.960Z,69.41
2023-05-24T06:53:43.311Z,69.03
2023-05-24T06:55:44.687Z,69.02
2023-05-24T06:57:46.095Z,69.53
2023-05-24T06:59:47.615Z,69.63
2023-05-24T07:01:51.763Z,69.70
2023-05-24T07:03:53.312Z,69.63
2023-05-24T07:05:54.682Z,69.96
2023-05-24T07:07:56.087Z,70.41
2023-05-24T07:09:57.448Z,70.08
2023-05-24T07:11:58.829Z,70.14
2023-05-24T07:14:00.214Z,69.92
2023-05-24T07:16:02.116Z,69.91
2023-05-24T07:18:03.562Z,69.93
2023-05-24T07:20:09.908Z,70.46
2023-05-24T07:22:11.605Z,69.93
2023-05-24T07:24:15.390Z,69.70
2023-05-24T07:26:18.012Z,69.86
2023-05-24T07:28:20.255Z,70.31
2023-05-24T07:30:31.716Z,69.83
2023-05-24T07:32:34.319Z,70.01
2023-05-24T07:34:35.715Z,69.88
2023-05-24T07:36:37.140Z,70.50
2023-05-24T07:38:39.111Z,70.15
2023-05-24T07:40:40.722Z,69.44
2023-05-24T07:42:42.314Z,69.65
2023-05-24T07:44:43.729Z,69.22
2023-05-24T07:46:45.228Z,69.72
2023-05-24T07:48:46.637Z,69.76
2023-05-24T07:50:49.992Z,69.63
2023-05-24T07:52:51.451Z,69.87
2023-05-24T07:54:52.807Z,69.97
2023-05-24T07:56:54.240Z,69.46
2023-05-24T07:58:59.448Z,69.50
2023-05-24T08:01:00.802Z,69.34
2023-05-24T08:03:02.305Z,68.88
2023-05-24T08:05:05.149Z,69.07
2023-05-24T08:07:08.162Z,69.05
2023-05-24T08:09:12.409Z,68.74
2023-05-24T08:11:13.765Z,68.95
2023-05-24T08:13:15.087Z,68.89
2023-05-24T08:15:16.447Z,68.91
2023-05-24T08:17:17.815Z,68.96
2023-05-24T08:19:19.510Z,68.88
2023-05-24T08:21:21.376Z,68.69
2023-05-24T08:23:22.757Z,68.40
2023-05-24T08:25:24.119Z,68.42
2023-05-24T08:27:28.876Z,68.47
2023-05-24T08:29:30.438Z,68.67
2023-05-24T08:31:34.935Z,68.49
2023-05-24T08:33:36.687Z,68.26
2023-05-24T08:35:38.084Z,68.33
2023-05-24T08:37:39.506Z,68.28
2023-05-24T08:39:40.928Z,58.71
2023-05-24T08:41:42.291Z,59.24
2023-05-24T08:43:46.689Z,61.50
2023-05-24T08:45:48.091Z,60.81
2023-05-24T08:47:49.510Z,60.05
2023-05-24T08:49:50.924Z,59.94
2023-05-24T08:51:52.250Z,59.41
2023-05-24T08:53:54.515Z,60.54
2023-05-24T08:55:56.138Z,60.37
2023-05-24T08:57:57.481Z,60.56
2023-05-24T08:59:59.244Z,61.03
2023-05-24T09:02:00.712Z,60.62
2023-05-24T09:04:02.354Z,60.57
2023-05-24T09:06:03.725Z,61.02
2023-05-24T09:08:05.077Z,61.78
2023-05-24T09:10:06.775Z,61.67
2023-05-24T09:12:08.717Z,61.64
2023-05-24T09:14:13.052Z,61.25
2023-05-24T09:16:15.308Z,63.08
2023-05-24T09:18:16.809Z,63.03
2023-05-24T09:20:18.797Z,62.26
2023-05-24T09:22:23.298Z,62.13
2023-05-24T09:24:24.674Z,62.31
2023-05-24T09:26:26.211Z,63.95
2023-05-24T09:28:27.609Z,64.00
2023-05-24T09:30:28.959Z,64.24
2023-05-24T09:32:30.308Z,63.54
2023-05-24T09:34:31.694Z,63.09
2023-05-24T09:36:36.913Z,62.93
2023-05-24T09:38:38.279Z,61.45
2023-05-24T09:40:39.814Z,62.02
2023-05-24T09:42:41.274Z,61.61
2023-05-24T09:44:43.531Z,61.20
2023-05-24T09:46:45.900Z,62.04
2023-05-24T09:48:47.563Z,62.06
2023-05-24T09:50:49.315Z,61.77
2023-05-24T09:52:50.701Z,62.15
2023-05-24T09:54:52.335Z,62.61
2023-05-24T09:56:53.853Z,63.19
2023-05-24T09:58:55.199Z,63.69
2023-05-24T10:00:56.681Z,64.18
2023-05-24T10:02:58.096Z,64.37
2023-05-24T10:05:00.142Z,64.11
2023-05-24T10:07:02.453Z,64.54
2023-05-24T10:09:06.527Z,64.24
2023-05-24T10:11:09.606Z,64.40
2023-05-24T10:13:11.732Z,64.42
2023-05-24T10:15:13.132Z,64.49
2023-05-24T10:17:14.573Z,64.39
2023-05-24T10:19:16.994Z,64.30
2023-05-24T10:21:18.393Z,64.45
2023-05-24T10:23:19.724Z,64.35
2023-05-24T10:25:21.654Z,64.06
2023-05-24T10:27:23.054Z,64.02
2023-05-24T10:29:24.519Z,64.02
2023-05-24T10:31:26.881Z,64.13
2023-05-24T10:33:28.391Z,64.20
2023-05-24T10:35:29.860Z,63.87
2023-05-24T10:37:31.749Z,63.88
2023-05-24T10:39:33.086Z,63.77
2023-05-24T10:41:34.523Z,64.06
2023-05-24T10:43:36.572Z,63.99
2023-05-24T10:45:38.100Z,63.77
2023-05-24T10:47:39.569Z,63.57
2023-05-24T10:49:40.962Z,64.02
2023-05-24T10:51:42.289Z,63.85
2023-05-24T10:53:43.653Z,63.84
2023-05-24T10:55:44.975Z,63.70
2023-05-24T10:57:46.302Z,63.80
2023-05-24T10:59:47.623Z,63.30
2023-05-24T11:01:49.035Z,63.38
2023-05-24T11:03:50.391Z,63.46
2023-05-24T11:05:52.987Z,63.51
2023-05-24T11:07:54.589Z,64.03
2023-05-24T11:09:58.141Z,63.53
2023-05-24T11:11:59.465Z,64.01
2023-05-24T11:14:02.246Z,64.04
2023-05-24T11:16:03.643Z,64.23
2023-05-24T11:18:05.064Z,64.16
2023-05-24T11:20:06.433Z,64.41
2023-05-24T11:22:07.870Z,64.36
2023-05-24T11:24:09.711Z,64.24
2023-05-24T11:26:11.164Z,64.32
2023-05-24T11:28:12.617Z,64.39
2023-05-24T11:30:14.022Z,64.51
2023-05-24T11:32:15.652Z,64.25
2023-05-24T11:34:17.821Z,64.21
2023-05-24T11:36:19.957Z,64.45
2023-05-24T11:38:24.126Z,64.29
2023-05-24T11:40:26.317Z,64.64
2023-05-24T11:42:27.640Z,64.38
2023-05-24T11:44:29.051Z,64.58
2023-05-24T11:46:30.943Z,64.62
2023-05-24T11:48:32.535Z,64.46
2023-05-24T11:50:45.643Z,64.50
2023-05-24T11:52:50.382Z,64.25
2023-05-24T11:54:51.836Z,64.23
2023-05-24T11:56:53.267Z,64.33
2023-05-24T11:58:54.659Z,64.19
2023-05-24T12:00:58.804Z,64.26
2023-05-24T12:03:05.190Z,64.08
2023-05-24T12:05:06.760Z,64.32
2023-05-24T12:07:08.124Z,63.97
2023-05-24T12:09:11.028Z,64.11
2023-05-24T12:11:12.491Z,64.35
2023-05-24T12:13:13.816Z,63.87
2023-05-24T12:15:15.240Z,64.18
2023-05-24T12:17:17.240Z,64.30
2023-05-24T12:19:31.441Z,64.31
2023-05-24T12:21:35.272Z,64.09
2023-05-24T12:23:37.307Z,64.09
2023-05-24T12:25:38.672Z,64.31
2023-05-24T12:27:44.083Z,64.06
2023-05-24T12:29:45.625Z,64.33
2023-05-24T12:31:47.091Z,64.00
2023-05-24T12:33:48.730Z,64.16
2023-05-24T12:35:50.126Z,63.83
2023-05-24T12:37:51.457Z,63.50
2023-05-24T12:39:54.640Z,63.62
2023-05-24T12:41:56.251Z,63.34
2023-05-24T12:43:57.587Z,63.52
2023-05-24T12:46:00.151Z,63.46
2023-05-24T12:48:03.038Z,62.39
2023-05-24T12:50:04.547Z,60.46
2023-05-24T12:52:06.717Z,59.87
2023-05-24T12:54:08.456Z,60.65
2023-05-24T12:56:09.782Z,59.55
2023-05-24T12:58:14.649Z,62.42
2023-05-24T13:00:16.919Z,62.40
2023-05-24T13:02:18.250Z,62.64
2023-05-24T13:04:20.899Z,62.57
2023-05-24T13:06:22.376Z,62.99
2023-05-24T13:08:23.720Z,63.55
2023-05-24T13:10:25.109Z,63.71
2023-05-24T13:12:28.950Z,63.80
2023-05-24T13:14:30.347Z,63.97
2023-05-24T13:16:31.826Z,64.25
2023-05-24T13:18:33.190Z,64.41
2023-05-24T13:20:34.623Z,64.58
2023-05-24T13:22:37.282Z,64.45
2023-05-24T13:24:38.609Z,64.13
2023-05-24T13:26:39.994Z,64.07
2023-05-24T13:28:58.673Z,63.62
2023-05-24T13:31:03.902Z,64.92
2023-05-24T13:33:05.376Z,64.99
2023-05-24T13:35:09.869Z,64.62
2023-05-24T13:37:11.283Z,65.03
2023-05-24T13:39:16.134Z,65.00
2023-05-24T13:41:17.996Z,65.15
2023-05-24T13:43:19.381Z,65.23
2023-05-24T13:45:21.515Z,65.22
2023-05-24T13:47:35.319Z,65.34
2023-05-24T13:49:41.216Z,65.67
2023-05-24T13:51:42.564Z,65.50
2023-05-24T13:53:43.984Z,65.38
2023-05-24T13:55:45.465Z,65.73
2023-05-24T13:57:51.186Z,65.82
2023-05-24T13:59:53.301Z,65.80
2023-05-24T14:01:54.738Z,65.27
2023-05-24T14:03:56.128Z,64.41
2023-05-24T14:05:57.486Z,62.49
2023-05-24T14:08:04.098Z,61.99
2023-05-24T14:10:05.461Z,62.12
2023-05-24T14:12:07.874Z,60.02
2023-05-24T14:16:13.543Z,60.20
2023-05-24T14:18:14.914Z,60.40
2023-05-24T14:20:16.479Z,59.99
2023-05-24T14:22:17.976Z,59.92
2023-05-24T14:24:19.386Z,60.07
2023-05-24T14:26:23.545Z,60.69
2023-05-24T14:28:25.326Z,60.08
2023-05-24T14:30:26.698Z,59.96
2023-05-24T14:32:30.976Z,61.19
2023-05-24T14:34:32.373Z,62.30
2023-05-24T14:36:33.764Z,62.23
2023-05-24T14:38:35.172Z,61.18
2023-05-24T14:40:37.740Z,60.48
2023-05-24T14:42:39.134Z,60.83
2023-05-24T14:44:40.510Z,60.33
2023-05-24T14:46:41.918Z,59.66
2023-05-24T14:48:43.328Z,61.39
2023-05-24T14:50:44.708Z,61.73
2023-05-24T14:52:46.069Z,62.09
2023-05-24T14:54:47.453Z,62.93
2023-05-24T14:56:48.840Z,62.67
2023-05-24T14:58:50.181Z,63.09
2023-05-24T15:00:51.552Z,63.77
2023-05-24T15:02:53.187Z,64.10
2023-05-24T15:04:54.641Z,63.65
2023-05-24T15:06:55.978Z,63.36
2023-05-24T15:08:57.308Z,63.61
2023-05-24T15:10:59.161Z,63.93
2023-05-24T15:13:01.456Z,63.60
2023-05-24T15:15:03.009Z,63.35
2023-05-24T15:17:04.405Z,63.39
2023-05-24T15:19:05.891Z,63.29
2023-05-24T15:21:07.232Z,63.03
2023-05-24T15:23:10.690Z,63.08
2023-05-24T15:25:12.189Z,63.47
2023-05-24T15:27:13.520Z,63.43
2023-05-24T15:29:17.814Z,63.36
2023-05-24T15:31:19.502Z,63.30
2023-05-24T15:33:21.077Z,63.11
2023-05-24T15:35:23.048Z,63.17
2023-05-24T15:37:24.367Z,63.70
2023-05-24T15:39:37.845Z,63.48
2023-05-24T15:41:39.324Z,63.39
2023-05-24T15:43:40.703Z,63.48
2023-05-24T15:45:42.035Z,63.13
2023-05-24T15:47:43.500Z,63.35
2023-05-24T15:49:45.446Z,63.61
2023-05-24T15:52:03.496Z,63.52
2023-05-24T15:54:06.084Z,63.69
2023-05-24T15:56:07.433Z,63.58
2023-05-24T15:58:08.798Z,63.99
2023-05-24T16:00:10.542Z,63.94
2023-05-24T16:02:11.946Z,64.09
2023-05-24T16:04:13.569Z,63.80
2023-05-24T16:06:14.990Z,63.88
2023-05-24T16:08:17.008Z,64.08
2023-05-24T16:10:18.342Z,64.13
2023-05-24T16:12:19.708Z,64.05
2023-05-24T16:14:21.172Z,64.29
2023-05-24T16:16:23.663Z,64.24
2023-05-24T16:18:27.026Z,64.66
2023-05-24T16:20:31.080Z,64.67
2023-05-24T16:22:32.444Z,64.64
2023-05-24T16:24:33.807Z,64.93
2023-05-24T16:26:35.285Z,64.70
2023-05-24T16:28:36.796Z,64.73
2023-05-24T16:30:38.196Z,64.85
2023-05-24T16:32:40.036Z,64.76
2023-05-24T16:34:56.254Z,64.76
2023-05-24T16:36:58.722Z,64.84
2023-05-24T16:39:03.124Z,64.94
2023-05-24T16:41:08.630Z,65.08
2023-05-24T16:43:09.994Z,64.71
2023-05-24T16:45:14.113Z,64.93
2023-05-24T16:47:15.464Z,65.01
2023-05-24T16:49:16.932Z,64.69
2023-05-24T16:51:18.290Z,64.84
2023-05-24T16:53:22.861Z,64.67
2023-05-24T16:55:27.057Z,64.72
2023-05-24T16:57:31.056Z,64.89
2023-05-24T16:59:32.680Z,65.04
2023-05-24T17:01:34.035Z,65.17
2023-05-24T17:03:35.711Z,64.79
2023-05-24T17:05:37.264Z,65.09
2023-05-24T17:07:39.408Z,65.00
2023-05-24T17:09:40.945Z,64.98
2023-05-24T17:11:43.183Z,65.04
2023-05-24T17:13:45.780Z,64.96
2023-05-24T17:15:47.151Z,64.83
2023-05-24T17:17:51.503Z,64.83
2023-05-24T17:19:53.177Z,64.94
2023-05-24T17:21:54.653Z,64.59
2023-05-24T17:23:56.672Z,64.70
2023-05-24T17:25:58.092Z,64.76
2023-05-24T17:27:59.433Z,64.64
2023-05-24T17:30:00.802Z,64.71
2023-05-24T17:32:02.268Z,64.68
2023-05-24T17:34:06.949Z,64.79
2023-05-24T17:36:09.590Z,64.87
2023-05-24T17:38:11.019Z,65.04
2023-05-24T17:40:12.412Z,64.90
2023-05-24T17:42:13.801Z,64.80
2023-05-24T17:44:15.193Z,64.89
2023-05-24T17:46:19.477Z,64.81
2023-05-24T17:48:20.858Z,64.88
2023-05-24T17:50:22.262Z,64.78
2023-05-24T17:52:23.583Z,64.87
2023-05-24T17:54:24.947Z,64.77
2023-05-24T17:56:26.286Z,64.81
2023-05-24T17:58:28.569Z,64.74
2023-05-24T18:00:29.888Z,64.75
2023-05-24T18:02:31.325Z,64.82
2023-05-24T18:04:38.749Z,64.82
2023-05-24T18:06:42.877Z,64.75
2023-05-24T18:08:44.297Z,64.61
2023-05-24T18:10:45.914Z,64.61
2023-05-24T18:12:47.886Z,64.74
2023-05-24T18:14:49.259Z,64.98
2023-05-24T18:16:50.681Z,64.95
2023-05-24T18:18:56.255Z,64.44
2023-05-24T18:20:57.575Z,63.84
2023-05-24T18:22:58.954Z,64.55
2023-05-24T18:25:00.367Z,64.53
2023-05-24T18:27:02.624Z,64.05
2023-05-24T18:29:03.956Z,63.15
2023-05-24T18:31:08.291Z,64.35
2023-05-24T18:33:09.847Z,64.24
2023-05-24T18:35:11.299Z,63.76
2023-05-24T18:37:15.734Z,64.14
2023-05-24T18:39:17.172Z,63.51
2023-05-24T18:41:18.505Z,63.96
2023-05-24T18:43:19.833Z,63.73
2023-05-24T18:45:24.293Z,63.56
2023-05-24T18:47:26.041Z,63.24
2023-05-24T18:49:27.387Z,62.68
2023-05-24T18:51:28.801Z,63.87
2023-05-24T18:53:30.131Z,63.93
2023-05-24T18:55:31.462Z,63.46
2023-05-24T18:57:33.768Z,63.60
2023-05-24T18:59:38.746Z,64.47
2023-05-24T19:01:40.126Z,65.13
2023-05-24T19:03:41.802Z,65.08
2023-05-24T19:05:44.181Z,64.02
2023-05-24T19:07:45.910Z,63.27
2023-05-24T19:09:53.239Z,62.97
2023-05-24T19:11:56.316Z,63.87
2023-05-24T19:13:57.711Z,63.95
2023-05-24T19:16:07.081Z,64.87
2023-05-24T19:18:14.498Z,64.38
2023-05-24T19:20:19.221Z,63.18
2023-05-24T19:22:23.548Z,62.81
2023-05-24T19:24:25.991Z,62.31
2023-05-24T19:26:27.506Z,61.69
2023-05-24T19:28:28.911Z,61.61
2023-05-24T19:30:30.238Z,63.27
2023-05-24T19:32:31.772Z,63.75
2023-05-24T19:34:38.176Z,63.68
2023-05-24T19:36:42.699Z,64.34
2023-05-24T19:38:47.016Z,64.59
2023-05-24T19:40:51.185Z,64.56
2023-05-24T19:42:52.600Z,64.42
2023-05-24T19:44:54.124Z,63.94
2023-05-24T19:46:55.558Z,63.00
2023-05-24T19:48:59.932Z,63.11
2023-05-24T19:51:02.360Z,63.53
2023-05-24T19:53:03.721Z,64.28
2023-05-24T19:55:05.594Z,64.34
2023-05-24T19:57:06.914Z,64.26
2023-05-24T19:59:10.936Z,64.02
2023-05-24T20:01:18.354Z,64.17
2023-05-24T20:03:19.932Z,63.97
2023-05-24T20:05:21.452Z,63.76
2023-05-24T20:07:22.841Z,64.14
2023-05-24T20:09:24.231Z,64.14
2023-05-24T20:11:25.840Z,63.98
2023-05-24T20:13:27.175Z,64.21
2023-05-24T20:15:28.563Z,64.19
2023-05-24T20:17:30.018Z,64.09
2023-05-24T20:19:31.416Z,64.15
2023-05-24T20:21:32.847Z,64.09
2023-05-24T20:23:34.183Z,63.37
2023-05-24T20:25:35.594Z,63.81
2023-05-24T20:27:37.021Z,63.94
2023-05-24T20:29:38.414Z,62.90
2023-05-24T20:31:39.833Z,61.78
2023-05-24T20:33:41.215Z,61.44
2023-05-24T20:35:42.912Z,61.26
2023-05-24T20:37:44.520Z,61.76
2023-05-24T20:39:45.926Z,61.73
2023-05-24T20:41:47.252Z,62.12
2023-05-24T20:43:49.343Z,61.99
2023-05-24T20:45:50.698Z,62.07
2023-05-24T20:47:52.150Z,62.25
2023-05-24T20:49:53.556Z,62.64
2023-05-24T20:51:54.932Z,62.32
2023-05-24T20:53:56.396Z,61.92
2023-05-24T20:55:57.790Z,61.95
2023-05-24T20:57:59.144Z,63.00
2023-05-24T21:00:00.479Z,62.33
2023-05-24T21:02:02.405Z,62.22
2023-05-24T21:04:03.898Z,63.00
2023-05-24T21:06:05.452Z,62.41
2023-05-24T21:08:06.907Z,62.97
2023-05-24T21:10:08.549Z,62.08
2023-05-24T21:12:09.933Z,62.13
2023-05-24T21:14:11.298Z,62.23
2023-05-24T21:16:12.618Z,62.40
2023-05-24T21:18:14.024Z,62.53
2023-05-24T21:20:15.606Z,63.25
2023-05-24T21:22:16.944Z,62.58
2023-05-24T21:24:18.345Z,64.23
2023-05-24T21:26:26.577Z,63.46
2023-05-24T21:28:27.920Z,63.37
2023-05-24T21:30:29.295Z,63.05
2023-05-24T21:32:30.672Z,62.47
2023-05-24T21:34:32.151Z,62.51
2023-05-24T21:36:33.575Z,63.11
2023-05-24T21:38:34.909Z,62.76
2023-05-24T21:40:36.288Z,63.15
2023-05-24T21:42:37.666Z,63.03
2023-05-24T21:44:38.998Z,62.67
2023-05-24T21:46:40.458Z,63.18
2023-05-24T21:48:41.882Z,62.61
2023-05-24T21:50:43.271Z,63.18
2023-05-24T21:52:44.652Z,63.01
2023-05-24T21:54:46.060Z,62.77
2023-05-24T21:56:47.387Z,62.69
2023-05-24T21:58:48.724Z,63.00
2023-05-24T22:00:51.706Z,62.69
2023-05-24T22:02:53.187Z,63.33
2023-05-24T22:04:54.827Z,62.74
2023-05-24T22:06:56.144Z,62.44
2023-05-24T22:09:02.261Z,62.64
2023-05-24T22:11:03.632Z,63.00
2023-05-24T22:13:05.013Z,63.32
2023-05-24T22:15:06.599Z,63.01
2023-05-24T22:17:07.929Z,63.17
2023-05-24T22:19:09.377Z,63.43
2023-05-24T22:21:10.717Z,62.56
2023-05-24T22:23:12.347Z,63.13
2023-05-24T22:25:17.360Z,55.33
2023-05-24T22:27:18.829Z,52.77
2023-05-24T22:29:20.213Z,53.75
2023-05-24T22:31:21.729Z,56.82
2023-05-24T22:33:23.308Z,57.09
2023-05-24T22:35:24.656Z,58.24
2023-05-24T22:37:26.063Z,58.01
2023-05-24T22:39:27.437Z,58.46
2023-05-24T22:41:28.955Z,59.22
2023-05-24T22:43:30.280Z,59.86
2023-05-24T22:45:31.599Z,60.10
2023-05-24T22:47:36.519Z,60.80
2023-05-24T22:49:37.966Z,60.97
2023-05-24T22:51:44.053Z,61.31
2023-05-24T22:53:45.512Z,61.36
2023-05-24T22:55:46.835Z,61.97
2023-05-24T22:57:48.193Z,61.99
2023-05-24T22:59:49.572Z,62.32
2023-05-24T23:01:51.008Z,62.87
2023-05-24T23:03:52.506Z,63.13
2023-05-24T23:05:53.871Z,63.12
2023-05-24T23:07:55.248Z,63.36
2023-05-24T23:09:56.901Z,63.35
2023-05-24T23:11:58.969Z,63.48
2023-05-24T23:14:00.363Z,63.77
2023-05-24T23:16:02.229Z,63.75
2023-05-24T23:18:05.725Z,63.70
2023-05-24T23:20:10.137Z,64.29
2023-05-24T23:22:12.078Z,64.92
2023-05-24T23:24:15.893Z,64.65
2023-05-24T23:26:17.435Z,64.39
2023-05-24T23:28:18.770Z,64.95
2023-05-24T23:30:20.110Z,64.86
2023-05-24T23:32:21.508Z,64.95
2023-05-24T23:34:22.857Z,65.18
2023-05-24T23:36:24.197Z,64.85
2023-05-24T23:38:25.626Z,65.09
2023-05-24T23:40:29.887Z,65.17
2023-05-24T23:42:31.320Z,65.14
2023-05-24T23:44:32.686Z,65.19
2023-05-24T23:46:34.192Z,65.57
2023-05-24T23:48:35.585Z,65.37
2023-05-24T23:50:50.148Z,65.70
2023-05-24T23:52:51.820Z,65.94
2023-05-24T23:54:53.190Z,66.09
2023-05-24T23:56:54.583Z,65.75
2023-05-24T23:58:55.937Z,65.95
